createdAt,value
2022-11-15T00:02:50.382Z,3.78
2022-11-15T00:08:12.527Z,3.97
2022-11-15T00:13:34.832Z,3.63
2022-11-15T00:18:58.336Z,3.35
2022-11-15T00:24:20.094Z,3.10
2022-11-15T00:29:44.190Z,3.03
2022-11-15T00:35:06.240Z,3.08
2022-11-15T00:40:28.198Z,3.08
2022-11-15T00:45:49.966Z,3.30
2022-11-15T00:51:11.699Z,3.40
2022-11-15T00:56:33.407Z,3.70
2022-11-15T01:01:55.102Z,3.08
2022-11-15T01:07:16.924Z,3.10
2022-11-15T01:12:38.846Z,3.10
2022-11-15T01:18:00.650Z,2.92
2022-11-15T01:23:22.356Z,2.80
2022-11-15T01:28:44.048Z,2.92
2022-11-15T01:34:05.817Z,3.30
2022-11-15T01:39:27.704Z,2.97
2022-11-15T01:44:51.618Z,3.05
2022-11-15T01:50:18.410Z,3.50
2022-11-15T01:55:40.210Z,3.28
2022-11-15T02:01:02.056Z,3.17
2022-11-15T02:06:23.917Z,3.20
2022-11-15T02:11:47.330Z,3.10
2022-11-15T02:17:51.541Z,2.80
2022-11-15T02:24:04.785Z,3.05
2022-11-15T02:29:42.392Z,2.60
2022-11-15T02:35:21.196Z,3.00
2022-11-15T02:40:53.049Z,2.47
2022-11-15T02:46:48.929Z,2.70
2022-11-15T02:52:15.986Z,2.50
2022-11-15T02:57:53.561Z,2.75
2022-11-15T03:03:46.734Z,2.78
2022-11-15T03:09:15.095Z,2.80
2022-11-15T03:14:46.421Z,3.05
2022-11-15T03:20:10.761Z,2.38
2022-11-15T03:25:36.671Z,2.63
2022-11-15T03:31:02.374Z,2.28
2022-11-15T03:36:25.884Z,2.75
2022-11-15T03:42:09.220Z,2.60
2022-11-15T03:47:43.152Z,2.50
2022-11-15T03:53:04.988Z,2.28
2022-11-15T03:58:26.694Z,2.33
2022-11-15T04:03:48.382Z,2.90
2022-11-15T04:09:10.107Z,2.47
2022-11-15T04:14:31.813Z,2.97
2022-11-15T04:20:12.147Z,3.15
2022-11-15T04:25:33.936Z,2.95
2022-11-15T04:30:55.742Z,2.80
2022-11-15T04:36:36.192Z,2.42
2022-11-15T04:41:57.889Z,2.10
2022-11-15T04:47:19.803Z,2.25
2022-11-15T04:52:43.449Z,3.17
2022-11-15T04:58:05.243Z,3.10
2022-11-15T05:03:45.401Z,2.78
2022-11-15T05:09:07.313Z,2.67
2022-11-15T05:14:30.181Z,3.55
2022-11-15T05:19:52.896Z,3.80
2022-11-15T05:25:14.661Z,3.40
2022-11-15T05:30:36.357Z,3.10
2022-11-15T05:36:05.615Z,3.08
2022-11-15T05:41:33.289Z,2.78
2022-11-15T05:46:56.784Z,3.00
2022-11-15T05:52:23.381Z,2.42
2022-11-15T05:57:45.888Z,2.85
2022-11-15T06:03:07.632Z,3.70
2022-11-15T06:08:29.328Z,4.10
2022-11-15T06:13:51.039Z,3.80
2022-11-15T06:19:12.793Z,3.70
2022-11-15T06:24:34.454Z,3.45
2022-11-15T06:29:56.136Z,4.10
2022-11-15T06:35:18.277Z,4.25
2022-11-15T06:40:40.462Z,2.60
2022-11-15T06:46:03.961Z,2.83
2022-11-15T06:51:25.659Z,3.20
2022-11-15T06:56:47.362Z,2.70
2022-11-15T07:02:15.214Z,2.63
2022-11-15T07:07:37.110Z,2.97
2022-11-15T07:12:58.950Z,3.63
2022-11-15T07:18:20.776Z,3.70
2022-11-15T07:23:42.544Z,3.60
2022-11-15T07:29:04.237Z,3.95
2022-11-15T07:34:25.950Z,3.70
2022-11-15T07:39:47.652Z,3.50
2022-11-15T07:45:09.571Z,3.67
2022-11-15T07:50:32.036Z,3.75
2022-11-15T07:55:54.457Z,3.50
2022-11-15T08:01:16.295Z,4.70
2022-11-15T08:06:38.266Z,7.28
2022-11-15T08:11:59.960Z,6.82
2022-11-15T08:17:21.739Z,6.97
2022-11-15T08:22:43.420Z,6.83
2022-11-15T08:28:08.017Z,6.88
2022-11-15T08:33:30.999Z,7.30
2022-11-15T08:38:53.002Z,7.10
2022-11-15T08:44:14.745Z,6.65
2022-11-15T08:49:36.429Z,5.95
2022-11-15T08:54:58.629Z,6.07
2022-11-15T09:00:20.987Z,5.55
2022-11-15T09:05:42.869Z,7.97
2022-11-15T09:11:09.337Z,5.95
2022-11-15T09:16:32.065Z,5.72
2022-11-15T09:21:53.896Z,5.53
2022-11-15T09:27:15.672Z,5.60
2022-11-15T09:32:39.339Z,5.35
2022-11-15T09:38:02.018Z,7.45
2022-11-15T09:43:45.305Z,6.47
2022-11-15T09:49:09.401Z,5.55
2022-11-15T09:54:55.888Z,5.78
2022-11-15T10:06:06.952Z,5.07
2022-11-15T10:11:38.153Z,6.32
2022-11-15T10:17:10.395Z,7.70
2022-11-15T10:22:52.233Z,5.32
2022-11-15T10:28:22.293Z,5.13
2022-11-15T10:33:44.024Z,5.80
2022-11-15T10:39:05.712Z,5.47
2022-11-15T10:44:29.404Z,5.55
2022-11-15T10:49:57.519Z,5.25
2022-11-15T10:55:26.670Z,6.03
2022-11-15T11:00:48.497Z,5.95
2022-11-15T11:06:16.825Z,5.88
2022-11-15T11:11:52.775Z,6.40
2022-11-15T11:17:24.256Z,8.40
2022-11-15T11:23:04.217Z,8.43
2022-11-15T11:28:54.843Z,5.85
2022-11-15T11:34:32.250Z,6.20
2022-11-15T11:40:10.726Z,8.50
2022-11-15T11:45:40.404Z,6.63
2022-11-15T11:51:16.577Z,6.57
2022-11-15T11:56:42.592Z,6.72
2022-11-15T12:02:34.862Z,6.75
2022-11-15T12:08:05.484Z,5.25
2022-11-15T12:13:29.972Z,5.80
2022-11-15T12:18:54.857Z,5.45
2022-11-15T12:24:23.785Z,4.45
2022-11-15T12:29:50.694Z,4.57
2022-11-15T12:35:26.223Z,4.32
2022-11-15T12:41:13.858Z,4.70
2022-11-15T12:46:41.549Z,5.68
2022-11-15T12:52:03.181Z,5.40
2022-11-15T12:57:32.477Z,4.95
2022-11-15T13:03:18.402Z,4.80
2022-11-15T13:08:48.495Z,4.85
2022-11-15T13:14:40.724Z,4.65
2022-11-15T13:20:19.470Z,2.90
2022-11-15T13:26:06.075Z,3.13
2022-11-15T13:31:38.695Z,2.72
2022-11-15T13:37:00.624Z,2.92
2022-11-15T13:42:22.395Z,2.72
2022-11-15T13:47:44.234Z,3.47
2022-11-15T13:53:06.688Z,4.45
2022-11-15T13:58:28.391Z,3.90
2022-11-15T14:03:52.034Z,4.13
2022-11-15T14:09:30.754Z,4.50
2022-11-15T14:14:52.933Z,4.28
2022-11-15T14:20:27.306Z,4.60
2022-11-15T14:25:57.997Z,4.43
2022-11-15T14:31:20.680Z,4.97
2022-11-15T14:36:42.471Z,5.45
2022-11-15T14:42:06.480Z,5.65
2022-11-15T14:47:28.207Z,4.88
2022-11-15T14:52:50.157Z,4.47
2022-11-15T14:58:11.960Z,3.83
2022-11-15T15:03:33.643Z,3.60
2022-11-15T15:08:55.359Z,4.20
2022-11-15T15:14:17.295Z,3.33
2022-11-15T15:19:39.045Z,3.75
2022-11-15T15:25:00.749Z,3.45
2022-11-15T15:30:23.912Z,4.45
2022-11-15T15:35:45.614Z,4.10
2022-11-15T15:41:11.384Z,3.90
2022-11-15T15:46:34.597Z,3.78
2022-11-15T15:51:56.326Z,3.80
2022-11-15T15:57:18.131Z,3.40
2022-11-15T16:02:41.022Z,4.85
2022-11-15T16:08:02.776Z,4.63
2022-11-15T16:13:24.470Z,4.90
2022-11-15T16:18:46.149Z,5.60
2022-11-15T16:24:07.921Z,5.30
2022-11-15T16:29:29.655Z,4.75
2022-11-15T16:34:51.375Z,5.07
2022-11-15T16:40:28.923Z,4.38
2022-11-15T16:45:51.494Z,5.25
2022-11-15T16:51:13.345Z,5.13
2022-11-15T16:56:35.057Z,4.82
2022-11-15T17:01:56.819Z,6.80
2022-11-15T17:07:18.617Z,5.55
2022-11-15T17:12:40.356Z,5.90
2022-11-15T17:18:02.048Z,7.13
2022-11-15T17:23:23.724Z,6.10
2022-11-15T17:28:45.433Z,4.25
2022-11-15T17:34:07.517Z,4.97
2022-11-15T17:39:29.235Z,8.57
2022-11-15T17:44:50.974Z,7.00
2022-11-15T17:50:12.841Z,6.80
2022-11-15T17:55:35.624Z,6.28
2022-11-15T18:01:06.540Z,6.05
2022-11-15T18:06:30.563Z,6.07
2022-11-15T18:11:54.368Z,6.15
2022-11-15T18:17:18.091Z,6.85
2022-11-15T18:22:39.875Z,7.05
2022-11-15T18:28:01.635Z,6.97
2022-11-15T18:33:23.407Z,8.73
2022-11-15T18:38:45.418Z,8.98
2022-11-15T18:44:07.312Z,6.95
2022-11-15T18:49:29.072Z,6.68
2022-11-15T18:54:50.805Z,7.47
2022-11-15T19:00:13.260Z,6.90
2022-11-15T19:05:35.358Z,7.07
2022-11-15T19:10:57.067Z,7.82
2022-11-15T19:16:18.793Z,6.95
2022-11-15T19:21:40.785Z,7.93
2022-11-15T19:27:02.510Z,7.15
2022-11-15T19:32:24.228Z,7.72
2022-11-15T19:37:45.948Z,6.85
2022-11-15T19:43:07.680Z,7.38
2022-11-15T19:48:31.573Z,10.65
2022-11-15T19:53:55.524Z,8.88
2022-11-15T19:59:17.399Z,7.55
2022-11-15T20:04:39.132Z,7.07
2022-11-15T20:10:00.989Z,7.45
2022-11-15T20:15:23.039Z,4.78
2022-11-15T20:20:45.386Z,6.43
2022-11-15T20:26:08.560Z,6.65
2022-11-15T20:31:31.477Z,6.88
2022-11-15T20:36:54.285Z,6.13
2022-11-15T20:42:16.016Z,6.28
2022-11-15T20:47:37.853Z,7.00
2022-11-15T20:52:59.634Z,8.07
2022-11-15T20:58:21.360Z,7.47
2022-11-15T21:03:43.419Z,9.05
2022-11-15T21:09:23.544Z,10.77
2022-11-15T21:14:46.477Z,10.10
2022-11-15T21:20:08.613Z,8.85
2022-11-15T21:25:30.400Z,7.53
2022-11-15T21:30:54.040Z,7.68
2022-11-15T21:36:16.053Z,8.13
2022-11-15T21:41:37.910Z,8.13
2022-11-15T21:47:00.198Z,7.13
2022-11-15T21:52:21.924Z,6.72
2022-11-15T21:57:43.649Z,6.80
2022-11-15T22:03:05.510Z,7.80
2022-11-15T22:08:27.628Z,7.40
2022-11-15T22:13:49.483Z,6.75
2022-11-15T22:19:11.202Z,7.15
2022-11-15T22:24:32.937Z,6.65
2022-11-15T22:29:54.632Z,6.05
2022-11-15T22:35:16.738Z,5.82
2022-11-15T22:40:39.161Z,6.30
2022-11-15T22:46:02.007Z,5.90
2022-11-15T22:51:23.834Z,6.25
2022-11-15T22:56:46.690Z,5.82
2022-11-15T23:02:08.414Z,5.35
2022-11-15T23:07:30.465Z,5.40
2022-11-15T23:13:10.653Z,5.60
2022-11-15T23:18:37.466Z,5.55
2022-11-15T23:23:59.347Z,4.50
2022-11-15T23:29:23.458Z,4.22
2022-11-15T23:34:45.973Z,4.20
2022-11-15T23:40:08.501Z,4.07
2022-11-15T23:45:30.189Z,4.00
2022-11-15T23:50:51.887Z,3.72
2022-11-15T23:56:15.294Z,4.50
